Time,TemperatureF,DewpointF,PressureIn,WindDirection,WindDirectionDegrees,WindSpeedMPH,WindSpeedGustMPH,Humidity,HourlyPrecipIn,Conditions,Clouds,dailyrainin,SoftwareType,DateUTC
2013-07-09 00:11:00,57.0,53.8,29.87,North,0,0.0,-999.0,89,-99.99,,,0.00,Acu-Link.com,2013-07-09 07:11:00,
2013-07-09 00:26:00,56.5,53.3,29.88,North,0,0.0,-999.0,89,-99.99,,,0.00,Acu-Link.com,2013-07-09 07:26:00,
2013-07-09 00:42:00,56.5,53.9,29.89,North,0,0.0,-999.0,91,-99.99,,,0.00,Acu-Link.com,2013-07-09 07:42:00,
2013-07-09 00:57:00,55.8,52.6,29.88,North,0,0.0,-999.0,89,-99.99,,,0.00,Acu-Link.com,2013-07-09 07:57:00,
2013-07-09 01:13:00,55.9,53.6,29.89,North,0,0.0,-999.0,92,-99.99,,,0.00,Acu-Link.com,2013-07-09 08:13:00,
2013-07-09 01:28:00,56.3,54.3,29.89,North,0,0.0,-999.0,93,-99.99,,,0.00,Acu-Link.com,2013-07-09 08:28:00,
2013-07-09 01:43:00,55.4,52.5,29.88,North,0,0.0,-999.0,90,-99.99,,,0.00,Acu-Link.com,2013-07-09 08:43:00,
2013-07-09 01:58:00,55.2,52.3,29.89,North,0,0.0,-999.0,90,-99.99,,,0.00,Acu-Link.com,2013-07-09 08:58:00,
2013-07-09 02:14:00,56.5,53.6,29.90,North,0,0.0,-999.0,90,-99.99,,,0.00,Acu-Link.com,2013-07-09 09:14:00,
2013-07-09 02:29:00,57.6,54.4,29.90,North,0,0.0,-999.0,89,-99.99,,,0.00,Acu-Link.com,2013-07-09 09:29:00,
2013-07-09 02:44:00,58.5,55.0,29.90,North,0,0.0,-999.0,88,-99.99,,,0.00,Acu-Link.com,2013-07-09 09:44:00,
2013-07-09 02:59:00,59.4,56.5,29.90,North,0,0.0,-999.0,90,-99.99,,,0.00,Acu-Link.com,2013-07-09 09:59:00,
2013-07-09 03:14:00,59.5,56.9,29.89,North,0,0.0,-999.0,91,-99.99,,,0.00,Acu-Link.com,2013-07-09 10:14:00,
2013-07-09 03:30:00,59.7,57.1,29.89,North,0,0.0,-999.0,91,-99.99,,,0.00,Acu-Link.com,2013-07-09 10:30:00,
2013-07-09 03:45:00,59.5,56.9,29.89,North,0,0.0,-999.0,91,-99.99,,,0.00,Acu-Link.com,2013-07-09 10:45:00,
2013-07-09 04:00:00,59.2,56.6,29.90,North,0,0.0,-999.0,91,-99.99,,,0.00,Acu-Link.com,2013-07-09 11:00:00,
2013-07-09 04:15:00,59.5,56.9,29.90,North,0,0.0,-999.0,91,-99.99,,,0.00,Acu-Link.com,2013-07-09 11:15:00,
2013-07-09 04:31:00,59.7,57.1,29.90,North,0,0.0,-999.0,91,-99.99,,,0.00,Acu-Link.com,2013-07-09 11:31:00,
2013-07-09 04:46:00,59.7,57.1,29.92,North,0,0.0,-999.0,91,-99.99,,,0.00,Acu-Link.com,2013-07-09 11:46:00,
2013-07-09 05:01:00,59.7,56.8,29.92,North,0,1.7,-999.0,90,-99.99,,,0.00,Acu-Link.com,2013-07-09 12:01:00,
2013-07-09 05:16:00,59.5,56.6,29.93,North,0,1.7,-999.0,90,-99.99,,,0.00,Acu-Link.com,2013-07-09 12:16:00,
2013-07-09 05:32:00,59.2,56.3,29.92,North,0,0.0,-999.0,90,-99.99,,,0.00,Acu-Link.com,2013-07-09 12:32:00,
2013-07-09 05:47:00,58.8,56.2,29.93,North,0,1.7,-999.0,91,-99.99,,,0.00,Acu-Link.com,2013-07-09 12:47:00,
2013-07-09 06:02:00,58.6,56.0,29.93,North,0,1.7,-999.0,91,-99.99,,,0.00,Acu-Link.com,2013-07-09 13:02:00,
2013-07-09 06:17:00,59.0,56.4,29.93,North,0,1.1,-999.0,91,-99.99,,,0.00,Acu-Link.com,2013-07-09 13:17:00,
2013-07-09 06:32:00,59.5,56.6,29.93,North,0,0.0,-999.0,90,-99.99,,,0.00,Acu-Link.com,2013-07-09 13:32:00,
2013-07-09 06:48:00,60.1,57.2,29.94,ESE,112,1.1,-999.0,90,-99.99,,,0.00,Acu-Link.com,2013-07-09 13:48:00,
2013-07-09 07:03:00,60.6,57.0,29.93,ESE,112,0.0,-999.0,88,-99.99,,,0.00,Acu-Link.com,2013-07-09 14:03:00,
2013-07-09 07:18:00,61.3,57.4,29.94,ESE,112,1.1,-999.0,87,-99.99,,,0.00,Acu-Link.com,2013-07-09 14:18:00,
2013-07-09 07:34:00,61.3,57.1,29.95,ESE,112,1.7,-999.0,86,-99.99,,,0.00,Acu-Link.com,2013-07-09 14:34:00,
2013-07-09 07:49:00,62.2,57.6,29.94,ESE,112,0.0,-999.0,85,-99.99,,,0.00,Acu-Link.com,2013-07-09 14:49:00,
2013-07-09 08:04:00,63.0,57.8,29.95,ESE,112,2.2,-999.0,83,-99.99,,,0.00,Acu-Link.com,2013-07-09 15:04:00,
2013-07-09 08:20:00,62.4,57.5,29.94,ESE,112,1.7,-999.0,84,-99.99,,,0.00,Acu-Link.com,2013-07-09 15:20:00,
2013-07-09 08:36:00,63.7,58.1,29.95,ESE,112,1.1,-999.0,82,-99.99,,,0.00,Acu-Link.com,2013-07-09 15:36:00,
2013-07-09 08:51:00,65.7,58.3,29.95,ESE,112,1.1,-999.0,77,-99.99,,,0.00,Acu-Link.com,2013-07-09 15:51:00,
2013-07-09 09:08:00,67.5,58.9,29.94,ESE,112,4.2,-999.0,74,-99.99,,,0.00,Acu-Link.com,2013-07-09 16:08:00,
2013-07-09 09:23:00,72.3,59.9,29.95,ESE,112,2.2,-999.0,65,-99.99,,,0.00,Acu-Link.com,2013-07-09 16:23:00,
2013-07-09 09:38:00,73.9,60.0,29.95,ESE,112,0.0,-999.0,62,-99.99,,,0.00,Acu-Link.com,2013-07-09 16:38:00,
2013-07-09 09:53:00,70.7,59.6,29.95,East,90,2.7,-999.0,68,-99.99,,,0.00,Acu-Link.com,2013-07-09 16:53:00,
2013-07-09 10:08:00,76.3,60.9,29.95,NNW,337,3.2,-999.0,59,-99.99,,,0.00,Acu-Link.com,2013-07-09 17:08:00,
2013-07-09 10:23:00,79.0,60.9,29.95,South,180,3.2,-999.0,54,-99.99,,,0.00,Acu-Link.com,2013-07-09 17:23:00,
2013-07-09 10:39:00,76.3,60.4,29.95,NNW,337,2.2,-999.0,58,-99.99,,,0.00,Acu-Link.com,2013-07-09 17:39:00,
2013-07-09 11:09:00,78.3,61.3,29.94,North,0,2.7,-999.0,56,-99.99,,,0.00,Acu-Link.com,2013-07-09 18:09:00,
2013-07-09 11:24:00,77.0,61.1,29.94,East,90,1.1,-999.0,58,-99.99,,,0.00,Acu-Link.com,2013-07-09 18:24:00,
2013-07-09 11:40:00,77.0,61.1,29.94,North,0,4.7,-999.0,58,-99.99,,,0.00,Acu-Link.com,2013-07-09 18:40:00,
2013-07-09 11:55:00,77.7,61.7,29.95,NNW,337,2.7,-999.0,58,-99.99,,,0.00,Acu-Link.com,2013-07-09 18:55:00,
2013-07-09 12:10:00,77.9,61.9,29.94,NNE,22,2.2,-999.0,58,-99.99,,,0.00,Acu-Link.com,2013-07-09 19:10:00,
2013-07-09 12:25:00,77.0,61.6,29.93,NNW,337,2.7,-999.0,59,-99.99,,,0.00,Acu-Link.com,2013-07-09 19:25:00,
2013-07-09 12:40:00,79.3,62.2,29.94,North,0,6.3,-999.0,56,-99.99,,,0.00,Acu-Link.com,2013-07-09 19:40:00,
2013-07-09 12:56:00,79.5,61.9,29.93,NE,45,3.7,-999.0,55,-99.99,,,0.00,Acu-Link.com,2013-07-09 19:56:00,
2013-07-09 13:11:00,81.5,62.7,29.93,North,0,4.7,-999.0,53,-99.99,,,0.00,Acu-Link.com,2013-07-09 20:11:00,
2013-07-09 13:26:00,82.9,63.4,29.94,NNE,22,3.2,-999.0,52,-99.99,,,0.00,Acu-Link.com,2013-07-09 20:26:00,
2013-07-09 13:41:00,86.7,63.4,29.94,WNW,292,2.7,-999.0,46,-99.99,,,0.00,Acu-Link.com,2013-07-09 20:41:00,
2013-07-09 13:57:00,85.8,63.2,29.95,NW,315,2.7,-999.0,47,-99.99,,,0.00,Acu-Link.com,2013-07-09 20:57:00,
2013-07-09 14:12:00,84.9,63.0,29.94,North,0,2.7,-999.0,48,-99.99,,,0.00,Acu-Link.com,2013-07-09 21:12:00,
2013-07-09 14:27:00,88.2,62.8,29.94,North,0,6.3,-999.0,43,-99.99,,,0.00,Acu-Link.com,2013-07-09 21:27:00,
2013-07-09 14:43:00,87.3,61.4,29.95,NNW,337,2.2,-999.0,42,-99.99,,,0.00,Acu-Link.com,2013-07-09 21:43:00,
2013-07-09 14:58:00,87.6,61.6,29.93,NNW,337,6.8,-999.0,42,-99.99,,,0.00,Acu-Link.com,2013-07-09 21:58:00,
2013-07-09 15:13:00,87.4,61.5,29.92,NNE,22,5.3,-999.0,42,-99.99,,,0.00,Acu-Link.com,2013-07-09 22:13:00,
2013-07-09 15:28:00,84.9,59.9,29.92,North,0,5.8,-999.0,43,-99.99,,,0.00,Acu-Link.com,2013-07-09 22:28:00,
2013-07-09 15:44:00,85.6,59.8,29.92,NNW,337,4.2,-999.0,42,-99.99,,,0.00,Acu-Link.com,2013-07-09 22:44:00,
2013-07-09 15:59:00,86.9,60.3,29.91,North,0,5.8,-999.0,41,-99.99,,,0.00,Acu-Link.com,2013-07-09 22:59:00,
2013-07-09 16:14:00,86.7,60.1,29.90,North,0,5.3,-999.0,41,-99.99,,,0.00,Acu-Link.com,2013-07-09 23:14:00,
2013-07-09 16:29:00,87.3,60.0,29.89,NNW,337,3.7,-999.0,40,-99.99,,,0.00,Acu-Link.com,2013-07-09 23:29:00,
2013-07-09 16:44:00,88.0,59.9,29.90,NW,315,3.2,-999.0,39,-99.99,,,0.00,Acu-Link.com,2013-07-09 23:44:00,
2013-07-09 17:00:00,86.0,59.5,29.89,NNW,337,5.3,-999.0,41,-99.99,,,0.00,Acu-Link.com,2013-07-10 00:00:00,
2013-07-09 17:15:00,88.5,60.3,29.90,East,90,2.2,-999.0,39,-99.99,,,0.00,Acu-Link.com,2013-07-10 00:15:00,
2013-07-09 17:30:00,88.0,59.9,29.88,NNW,337,3.7,-999.0,39,-99.99,,,0.00,Acu-Link.com,2013-07-10 00:30:00,
2013-07-09 17:46:00,85.1,59.4,29.89,NE,45,3.7,-999.0,42,-99.99,,,0.00,Acu-Link.com,2013-07-10 00:46:00,
2013-07-09 18:01:00,86.7,60.1,29.89,North,0,3.2,-999.0,41,-99.99,,,0.00,Acu-Link.com,2013-07-10 01:01:00,
2013-07-09 18:16:00,86.5,60.0,29.90,NNW,337,2.2,-999.0,41,-99.99,,,0.00,Acu-Link.com,2013-07-10 01:16:00,
2013-07-09 18:31:00,87.6,61.0,29.90,NNW,337,2.2,-999.0,41,-99.99,,,0.00,Acu-Link.com,2013-07-10 01:31:00,
2013-07-09 18:47:00,84.9,61.2,29.89,NNW,337,0.0,-999.0,45,-99.99,,,0.00,Acu-Link.com,2013-07-10 01:47:00,
2013-07-09 19:02:00,85.6,60.5,29.88,NNW,337,2.2,-999.0,43,-99.99,,,0.00,Acu-Link.com,2013-07-10 02:02:00,
2013-07-09 19:17:00,88.2,61.5,29.88,NNW,337,2.2,-999.0,41,-99.99,,,0.00,Acu-Link.com,2013-07-10 02:17:00,
2013-07-09 19:32:00,82.0,60.9,29.88,NNW,337,0.0,-999.0,49,-99.99,,,0.00,Acu-Link.com,2013-07-10 02:32:00,
2013-07-09 19:47:00,80.1,61.4,29.89,NNW,337,0.0,-999.0,53,-99.99,,,0.00,Acu-Link.com,2013-07-10 02:47:00,
2013-07-09 20:02:00,76.1,60.2,29.88,NNW,337,0.0,-999.0,58,-99.99,,,0.00,Acu-Link.com,2013-07-10 03:02:00,
2013-07-09 20:18:00,73.0,59.6,29.88,NNW,337,0.0,-999.0,63,-99.99,,,0.00,Acu-Link.com,2013-07-10 03:18:00,
2013-07-09 20:33:00,70.7,58.8,29.89,NNW,337,0.0,-999.0,66,-99.99,,,0.00,Acu-Link.com,2013-07-10 03:33:00,
2013-07-09 20:48:00,68.0,57.4,29.89,NNW,337,0.0,-999.0,69,-99.99,,,0.00,Acu-Link.com,2013-07-10 03:48:00,
2013-07-09 21:04:00,65.8,56.5,29.90,NNW,337,0.0,-999.0,72,-99.99,,,0.00,Acu-Link.com,2013-07-10 04:04:00,
2013-07-09 21:19:00,65.1,56.6,29.91,NNW,337,0.0,-999.0,74,-99.99,,,0.00,Acu-Link.com,2013-07-10 04:19:00,
2013-07-09 21:34:00,64.2,56.5,29.90,NNW,337,0.0,-999.0,76,-99.99,,,0.00,Acu-Link.com,2013-07-10 04:34:00,
2013-07-09 21:50:00,63.7,56.3,29.91,NNW,337,0.0,-999.0,77,-99.99,,,0.00,Acu-Link.com,2013-07-10 04:50:00,
2013-07-09 22:05:00,63.5,56.2,29.91,NNW,337,0.0,-999.0,77,-99.99,,,0.00,Acu-Link.com,2013-07-10 05:05:00,
2013-07-09 22:20:00,63.3,55.2,29.91,NNW,337,0.0,-999.0,75,-99.99,,,0.00,Acu-Link.com,2013-07-10 05:20:00,
2013-07-09 22:35:00,63.3,55.6,29.91,NNW,337,0.0,-999.0,76,-99.99,,,0.00,Acu-Link.com,2013-07-10 05:35:00,
2013-07-09 22:51:00,62.8,55.8,29.92,NNW,337,0.0,-999.0,78,-99.99,,,0.00,Acu-Link.com,2013-07-10 05:51:00,
2013-07-09 23:06:00,62.4,56.1,29.91,NNW,337,0.0,-999.0,80,-99.99,,,0.00,Acu-Link.com,2013-07-10 06:06:00,
2013-07-09 23:22:00,61.9,55.3,29.92,NNW,337,0.0,-999.0,79,-99.99,,,0.00,Acu-Link.com,2013-07-10 06:22:00,
2013-07-09 23:37:00,61.3,55.4,29.91,NNW,337,0.0,-999.0,81,-99.99,,,0.00,Acu-Link.com,2013-07-10 06:37:00,
2013-07-09 23:52:00,60.8,55.3,29.92,NNW,337,0.0,-999.0,82,-99.99,,,0.00,Acu-Link.com,2013-07-10 06:52:00,